createdAt,value
2018-03-23T00:00:37.496Z,19.73
2018-03-23T00:03:05.757Z,19.20
2018-03-23T00:05:34.794Z,20.80
2018-03-23T00:08:03.044Z,21.60
2018-03-23T00:10:31.317Z,20.87
2018-03-23T00:13:00.324Z,19.83
2018-03-23T00:15:28.593Z,16.33
2018-03-23T00:17:57.607Z,20.70
2018-03-23T00:20:25.883Z,20.90
2018-03-23T00:22:54.890Z,19.03
2018-03-23T00:25:23.144Z,18.13
2018-03-23T00:27:52.184Z,19.47
2018-03-23T00:30:20.450Z,18.23
2018-03-23T00:32:48.718Z,22.27
2018-03-23T00:35:17.744Z,18.77
2018-03-23T00:37:45.995Z,19.47
2018-03-23T00:40:15.041Z,18.27
2018-03-23T00:42:43.296Z,19.40
2018-03-23T00:45:11.553Z,21.33
2018-03-23T00:47:40.587Z,20.17
2018-03-23T00:50:08.832Z,22.73
2018-03-23T00:52:37.092Z,20.88
2018-03-23T00:55:05.360Z,23.73
2018-03-23T00:57:33.604Z,21.27
2018-03-23T01:00:01.867Z,23.00
2018-03-23T01:02:30.133Z,22.03
2018-03-23T01:04:58.409Z,22.90
2018-03-23T01:07:27.430Z,19.37
2018-03-23T01:09:55.692Z,20.60
2018-03-23T01:12:24.739Z,17.40
2018-03-23T01:14:52.969Z,22.53
2018-03-23T01:17:22.010Z,20.48
2018-03-23T01:19:50.265Z,18.60
2018-03-23T01:22:18.518Z,20.17
2018-03-23T01:24:47.549Z,21.05
2018-03-23T01:27:15.796Z,19.50
2018-03-23T01:29:44.921Z,20.20
2018-03-23T01:32:13.187Z,23.30
2018-03-23T01:34:42.208Z,22.63
2018-03-23T01:37:10.460Z,20.70
2018-03-23T01:39:39.476Z,20.87
2018-03-23T01:42:07.741Z,20.03
2018-03-23T01:44:36.757Z,22.00
2018-03-23T01:47:05.167Z,23.03
2018-03-23T01:49:33.424Z,24.23
2018-03-23T01:52:01.673Z,24.47
2018-03-23T01:54:30.698Z,23.50
2018-03-23T01:56:58.952Z,21.97
2018-03-23T01:59:27.974Z,24.85
2018-03-23T02:01:56.229Z,24.70
2018-03-23T02:04:27.496Z,24.27
2018-03-23T02:06:55.740Z,21.52
2018-03-23T02:09:23.997Z,22.67
2018-03-23T02:11:52.264Z,23.65
2018-03-23T02:14:20.512Z,23.80
2018-03-23T02:16:48.764Z,22.53
2018-03-23T02:19:17.034Z,24.93
2018-03-23T02:21:45.285Z,27.33
2018-03-23T02:24:13.581Z,24.20
2018-03-23T02:26:41.832Z,27.23
2018-03-23T02:29:10.106Z,24.15
2018-03-23T02:31:38.362Z,24.60
2018-03-23T02:34:07.386Z,25.43
2018-03-23T02:36:35.634Z,25.10
2018-03-23T02:39:04.644Z,25.57
2018-03-23T02:41:33.669Z,24.20
2018-03-23T02:44:01.935Z,24.77
2018-03-23T02:46:30.185Z,25.43
2018-03-23T02:48:59.204Z,25.50
2018-03-23T02:51:28.329Z,23.87
2018-03-23T02:53:56.598Z,26.50
2018-03-23T02:56:24.840Z,22.87
2018-03-23T02:58:53.085Z,24.83
2018-03-23T03:01:21.359Z,22.60
2018-03-23T03:03:49.601Z,26.77
2018-03-23T03:06:18.617Z,25.50
2018-03-23T03:08:46.885Z,25.20
2018-03-23T03:11:15.899Z,24.70
2018-03-23T03:13:44.159Z,24.27
2018-03-23T03:16:13.181Z,23.77
2018-03-23T03:18:41.437Z,25.60
2018-03-23T03:21:10.465Z,23.73
2018-03-23T03:23:38.728Z,25.40
2018-03-23T03:26:06.960Z,22.70
2018-03-23T03:28:35.219Z,23.13
2018-03-23T03:31:03.488Z,24.63
2018-03-23T03:33:31.736Z,21.55
2018-03-23T03:35:59.988Z,22.97
2018-03-23T03:38:28.236Z,22.40
2018-03-23T03:40:56.500Z,23.73
2018-03-23T03:43:24.739Z,24.73
2018-03-23T03:45:53.752Z,25.27
2018-03-23T03:48:22.025Z,26.67
2018-03-23T03:50:51.052Z,27.13
2018-03-23T03:53:19.311Z,25.65
2018-03-23T03:55:47.576Z,23.87
2018-03-23T03:58:16.589Z,25.70
2018-03-23T04:00:45.600Z,23.53
2018-03-23T04:03:14.004Z,26.73
2018-03-23T04:05:42.268Z,27.43
2018-03-23T04:08:10.975Z,27.50
2018-03-23T04:10:39.235Z,26.60
2018-03-23T04:13:08.741Z,26.40
2018-03-23T04:15:37.008Z,24.27
2018-03-23T04:18:06.026Z,26.20
2018-03-23T04:20:34.276Z,26.63
2018-03-23T04:23:03.309Z,26.63
2018-03-23T04:25:31.577Z,27.37
2018-03-23T04:27:59.836Z,27.03
2018-03-23T04:30:28.864Z,28.43
2018-03-23T04:32:57.115Z,28.87
2018-03-23T04:35:26.132Z,28.70
2018-03-23T04:37:54.396Z,23.73
2018-03-23T04:40:23.408Z,25.30
2018-03-23T04:42:51.667Z,24.60
2018-03-23T04:45:20.700Z,26.67
2018-03-23T04:47:48.949Z,22.75
2018-03-23T04:50:17.970Z,28.43
2018-03-23T04:52:46.275Z,23.40
2018-03-23T04:55:15.256Z,21.95
2018-03-23T04:57:43.516Z,23.13
2018-03-23T05:00:11.776Z,23.53
2018-03-23T05:02:40.789Z,23.90
2018-03-23T05:05:10.145Z,25.48
2018-03-23T05:07:38.404Z,22.50
2018-03-23T05:10:06.664Z,21.93
2018-03-23T05:12:34.939Z,21.53
2018-03-23T05:15:03.955Z,31.90
2018-03-23T05:17:32.188Z,29.47
2018-03-23T05:20:00.693Z,26.80
2018-03-23T05:22:29.708Z,34.97
2018-03-23T05:24:57.952Z,30.30
2018-03-23T05:27:26.218Z,25.63
2018-03-23T05:29:54.468Z,23.70
2018-03-23T05:32:22.720Z,23.80
2018-03-23T05:34:51.751Z,23.57
2018-03-23T05:37:19.996Z,25.83
2018-03-23T05:39:48.247Z,22.20
2018-03-23T05:42:16.506Z,23.95
